Time;durP1;ratioP1;P1;durP2;ratioP2;P2;SDS_P1;SDS_P2;PMS_P1;PMS_P2;Temp;Humidity;BMP_temperature;BMP_pressure;BME280_temperature;BME280_humidity;BME280_pressure;Samples;Min_cycle;Max_cycle;Signal;HPM_P1;HPM_P2
2023/07/09 00:02:03;;;;;;;21.58;14.35;;;;;;;26.10;49.94;101637.13;4939392;28;122237;-79
2023/07/09 00:04:30;;;;;;;22.30;14.50;;;;;;;26.02;50.21;101634.34;4955843;28;125504;-79
2023/07/09 00:07:01;;;;;;;22.05;14.52;;;;;;;25.97;50.25;101642.91;4954879;28;115467;-79
2023/07/09 00:09:28;;;;;;;22.90;14.88;;;;;;;25.94;50.40;101643.25;4948798;28;114127;-80
2023/07/09 00:11:56;;;;;;;22.13;14.52;;;;;;;25.94;50.22;101645.09;4953829;28;124172;-80
2023/07/09 00:14:23;;;;;;;21.90;14.73;;;;;;;25.93;50.50;101646.09;4933448;28;125157;-79
2023/07/09 00:16:50;;;;;;;22.77;14.88;;;;;;;25.93;50.69;101646.94;4954173;28;113910;-80
2023/07/09 00:19:20;;;;;;;22.17;14.30;;;;;;;25.93;50.85;101646.09;4952854;28;114333;-79
2023/07/09 00:21:52;;;;;;;21.77;14.73;;;;;;;25.94;50.64;101636.97;4953243;28;124230;-79
2023/07/09 00:24:21;;;;;;;21.70;14.27;;;;;;;25.95;50.45;101638.66;4968114;28;124007;-79
2023/07/09 00:26:48;;;;;;;20.17;14.88;;;;;;;25.94;50.74;101637.81;4936478;28;115242;-79
2023/07/09 00:29:16;;;;;;;19.98;15.10;;;;;;;25.95;50.54;101644.09;4938141;28;115145;-79
2023/07/09 00:31:44;;;;;;;23.05;15.27;;;;;;;25.96;50.73;101645.81;4936662;28;124006;-80
2023/07/09 00:34:17;;;;;;;22.23;15.57;;;;;;;25.97;51.07;101642.06;4936593;28;124361;-80
2023/07/09 00:36:45;;;;;;;22.55;14.98;;;;;;;25.98;50.73;101654.66;4920169;28;114783;-79
2023/07/09 00:39:17;;;;;;;21.20;15.75;;;;;;;25.98;50.93;101639.22;4947301;28;114465;-79
2023/07/09 00:41:46;;;;;;;21.58;15.50;;;;;;;26.00;50.67;101644.50;4955467;28;122471;-80
2023/07/09 00:44:20;;;;;;;20.17;15.27;;;;;;;26.00;51.22;101647.22;4940368;28;123845;-80
2023/07/09 00:46:47;;;;;;;25.35;14.70;;;;;;;26.01;51.09;101632.59;4942425;28;113569;-79
2023/07/09 00:49:32;;;;;;;24.85;15.60;;;;;;;26.01;50.65;101632.59;4942314;28;112014;-79
2023/07/09 00:52:03;;;;;;;19.70;15.20;;;;;;;26.01;50.72;101643.47;4947573;28;124392;-80
2023/07/09 00:54:42;;;;;;;20.27;15.15;;;;;;;26.02;50.79;101639.75;4940590;28;125569;-79
2023/07/09 00:57:17;;;;;;;25.73;15.63;;;;;;;26.01;50.65;101640.75;4955685;28;116259;-79
2023/07/09 00:59:50;;;;;;;21.60;14.77;;;;;;;26.00;50.61;101641.78;4974883;28;114758;-79
2023/07/09 01:02:22;;;;;;;21.38;14.45;;;;;;;25.96;50.46;101640.38;4956208;28;124334;-80
2023/07/09 01:04:54;;;;;;;26.40;15.20;;;;;;;25.91;50.49;101632.63;4953741;28;124023;-80
2023/07/09 01:07:21;;;;;;;19.85;14.35;;;;;;;25.89;50.45;101639.22;4927098;28;112444;-80
2023/07/09 01:09:48;;;;;;;21.95;14.40;;;;;;;25.88;50.73;101629.38;4956469;28;115064;-80
2023/07/09 01:12:19;;;;;;;21.75;14.40;;;;;;;25.88;50.64;101632.06;4943024;28;124874;-80
2023/07/09 01:14:51;;;;;;;22.40;15.00;;;;;;;25.87;50.74;101630.38;4940050;28;125033;-80
2023/07/09 01:17:19;;;;;;;20.73;14.55;;;;;;;25.82;50.46;101634.41;4972196;28;114473;-80
2023/07/09 01:19:50;;;;;;;21.40;15.00;;;;;;;25.79;50.77;101633.84;4955644;28;113190;-80
2023/07/09 01:22:20;;;;;;;22.48;15.40;;;;;;;25.76;50.73;101640.41;4935280;28;126339;-79
2023/07/09 01:25:05;;;;;;;20.73;15.18;;;;;;;25.75;50.64;101627.00;4919367;28;124985;-80
2023/07/09 01:27:44;;;;;;;21.83;15.05;;;;;;;25.75;50.52;101627.00;4935898;28;113405;-80
2023/07/09 01:30:24;;;;;;;20.70;14.07;;;;;;;25.76;50.43;101624.13;4956108;28;115320;-80
2023/07/09 01:32:56;;;;;;;21.27;14.52;;;;;;;25.76;50.61;101624.13;4956954;28;123933;-79
2023/07/09 01:35:26;;;;;;;25.45;15.27;;;;;;;25.77;50.25;101625.84;4926848;28;125233;-79
2023/07/09 01:37:53;;;;;;;22.60;14.48;;;;;;;25.77;50.73;101620.44;4955685;28;113740;-79
2023/07/09 01:40:23;;;;;;;23.55;15.02;;;;;;;25.76;50.58;101626.00;4939058;28;114628;-80
2023/07/09 01:43:01;;;;;;;22.83;16.20;;;;;;;25.74;50.61;101626.13;4952131;28;123837;-79
2023/07/09 01:45:28;;;;;;;21.48;15.15;;;;;;;25.67;50.74;101635.88;4970169;28;123847;-80
2023/07/09 01:47:56;;;;;;;23.30;15.45;;;;;;;25.58;50.79;101642.19;4948057;28;114037;-79
2023/07/09 01:50:26;;;;;;;20.50;14.50;;;;;;;25.48;50.86;101638.66;4972384;28;115486;-80
2023/07/09 01:52:55;;;;;;;22.23;15.98;;;;;;;25.41;50.87;101652.81;4954494;28;123598;-79
2023/07/09 01:55:23;;;;;;;24.20;15.70;;;;;;;25.34;50.94;101646.28;4973082;28;123555;-79
2023/07/09 01:57:52;;;;;;;20.95;15.02;;;;;;;25.28;51.13;101655.00;4955273;28;115861;-79
2023/07/09 02:00:20;;;;;;;23.42;15.75;;;;;;;25.22;51.30;101653.69;4955239;28;115583;-79
2023/07/09 02:02:48;;;;;;;23.85;15.15;;;;;;;25.19;51.50;101653.13;4959091;28;125299;-79
2023/07/09 02:05:18;;;;;;;27.40;15.60;;;;;;;25.16;51.42;101642.56;4969941;28;124054;-79
2023/07/09 02:07:46;;;;;;;22.77;16.05;;;;;;;25.14;51.16;101649.97;4953269;28;113554;-79
2023/07/09 02:10:15;;;;;;;23.38;15.40;;;;;;;25.11;51.48;101661.09;4964700;28;113513;-79
2023/07/09 02:12:43;;;;;;;24.13;15.43;;;;;;;25.09;51.52;101650.44;4963125;28;123236;-79
2023/07/09 02:15:11;;;;;;;26.40;15.70;;;;;;;25.08;51.54;101656.84;4960728;28;124902;-79
2023/07/09 02:17:38;;;;;;;25.58;16.83;;;;;;;25.06;51.54;101659.69;4961751;28;112715;-79
2023/07/09 02:20:07;;;;;;;23.75;15.70;;;;;;;25.05;51.53;101658.00;4956177;28;115475;-79
2023/07/09 02:22:35;;;;;;;24.88;15.50;;;;;;;25.04;51.71;101658.97;4978267;28;123205;-80
2023/07/09 02:25:03;;;;;;;23.38;15.85;;;;;;;25.03;51.77;101660.00;4941585;28;122223;-80
2023/07/09 02:27:32;;;;;;;23.27;15.27;;;;;;;25.01;51.72;101659.25;4958430;28;113792;-80
2023/07/09 02:30:00;;;;;;;26.45;15.68;;;;;;;25.00;51.42;101657.56;4937803;28;113783;-79
2023/07/09 02:32:28;;;;;;;24.55;15.20;;;;;;;24.96;51.57;101661.56;4957520;28;122110;-79
2023/07/09 02:34:55;;;;;;;25.20;15.38;;;;;;;24.94;51.50;101671.69;4959510;28;122979;-79
2023/07/09 02:37:25;;;;;;;23.70;16.20;;;;;;;24.91;51.54;101661.13;4974251;28;115603;-80
2023/07/09 02:39:52;;;;;;;24.33;17.42;;;;;;;24.89;51.79;101663.13;4958874;28;113496;-79
2023/07/09 02:42:21;;;;;;;28.90;17.33;;;;;;;24.85;51.78;101661.72;4956910;28;124487;-79
2023/07/09 02:44:49;;;;;;;21.23;15.27;;;;;;;24.82;51.81;101670.09;4963719;28;125182;-80
2023/07/09 02:47:18;;;;;;;22.15;15.68;;;;;;;24.79;51.74;101667.66;4968068;28;115168;-79
2023/07/09 02:49:47;;;;;;;27.55;16.85;;;;;;;24.76;51.68;101662.56;4944647;28;114130;-80
2023/07/09 02:52:15;;;;;;;30.67;17.80;;;;;;;24.73;52.10;101663.69;4942213;28;122772;-80
2023/07/09 02:54:42;;;;;;;22.63;16.40;;;;;;;24.73;52.03;101657.41;4950150;28;123413;-80
2023/07/09 02:57:09;;;;;;;24.15;15.80;;;;;;;24.71;51.85;101659.41;4940925;28;114598;-79
2023/07/09 02:59:37;;;;;;;25.67;16.58;;;;;;;24.70;52.04;101668.56;4956943;28;114383;-80
2023/07/09 03:02:04;;;;;;;21.38;16.23;;;;;;;24.67;51.86;101670.50;4961785;28;125116;-80
2023/07/09 03:04:32;;;;;;;22.70;15.68;;;;;;;24.66;51.99;101668.81;4962697;28;124218;-79
2023/07/09 03:07:02;;;;;;;21.77;16.02;;;;;;;24.63;51.87;101663.66;4962555;28;112911;-79
2023/07/09 03:09:29;;;;;;;26.52;16.05;;;;;;;24.61;52.03;101665.66;4961415;28;114287;-79
2023/07/09 03:11:57;;;;;;;21.38;16.55;;;;;;;24.58;52.23;101668.69;4961926;28;124574;-80
2023/07/09 03:14:24;;;;;;;26.52;15.48;;;;;;;24.58;52.20;101665.97;4943040;28;123068;-79
2023/07/09 03:16:52;;;;;;;21.00;15.68;;;;;;;24.55;52.04;101668.09;4961745;28;115133;-79
2023/07/09 03:19:19;;;;;;;23.52;16.35;;;;;;;24.50;52.30;101663.06;4975972;28;114337;-80
2023/07/09 03:21:46;;;;;;;28.35;17.73;;;;;;;24.47;52.50;101668.78;4940650;28;122412;-80
2023/07/09 03:24:18;;;;;;;27.73;18.42;;;;;;;24.43;52.68;101672.72;4954461;28;123471;-79
2023/07/09 03:26:46;;;;;;;26.05;18.05;;;;;;;24.36;52.76;101667.03;4955762;28;115348;-80
2023/07/09 03:29:13;;;;;;;26.10;16.77;;;;;;;24.31;52.76;101673.84;4974534;28;115705;-79
2023/07/09 03:31:40;;;;;;;30.42;16.58;;;;;;;24.24;52.80;101671.72;4940954;28;122971;-79
2023/07/09 03:34:07;;;;;;;35.20;17.38;;;;;;;24.20;53.03;101664.84;4952967;28;124021;-79
2023/07/09 03:36:37;;;;;;;36.25;17.92;;;;;;;24.16;53.13;101665.25;4943782;28;112822;-80
2023/07/09 03:39:05;;;;;;;28.33;17.73;;;;;;;24.13;53.22;101665.53;4954538;28;113377;-80
2023/07/09 03:41:33;;;;;;;26.80;17.45;;;;;;;24.11;53.32;101673.81;4966880;28;123138;-79
2023/07/09 03:44:01;;;;;;;25.50;16.60;;;;;;;24.10;53.33;101661.25;4933582;28;122599;-79
2023/07/09 03:46:28;;;;;;;26.55;17.05;;;;;;;24.09;53.58;101673.94;4956512;28;112938;-79
2023/07/09 03:48:58;;;;;;;25.65;17.50;;;;;;;24.08;53.82;101674.06;4952961;28;113745;-80
2023/07/09 03:51:25;;;;;;;31.38;17.85;;;;;;;24.08;53.55;101671.38;4963474;28;124993;-79
2023/07/09 03:53:53;;;;;;;26.70;16.90;;;;;;;24.08;53.54;101674.06;4964236;28;124855;-79
2023/07/09 03:56:20;;;;;;;27.25;17.45;;;;;;;24.07;53.63;101666.94;4957776;28;114995;-80
2023/07/09 03:58:47;;;;;;;25.05;17.05;;;;;;;24.07;53.56;101666.94;4952476;28;113943;-79
2023/07/09 04:01:16;;;;;;;29.35;17.45;;;;;;;24.09;53.52;101664.94;4952677;28;123717;-79
2023/07/09 04:03:43;;;;;;;33.28;17.60;;;;;;;24.09;53.60;101667.66;4939422;28;122997;-80
2023/07/09 04:06:11;;;;;;;27.65;17.48;;;;;;;24.10;53.50;101672.09;4936005;28;115136;-79
2023/07/09 04:08:38;;;;;;;36.13;17.75;;;;;;;24.12;53.60;101663.84;4948500;28;114082;-80
2023/07/09 04:11:05;;;;;;;30.73;17.13;;;;;;;24.14;53.64;101662.69;4959477;28;123222;-79
2023/07/09 04:13:33;;;;;;;36.78;18.13;;;;;;;24.15;53.93;101664.41;4957461;28;122765;-79
2023/07/09 04:16:00;;;;;;;34.72;18.45;;;;;;;24.19;53.97;101671.25;4956351;28;116150;-79
2023/07/09 04:18:29;;;;;;;34.00;19.05;;;;;;;24.20;54.34;101670.25;4958246;28;116157;-80
2023/07/09 04:20:56;;;;;;;32.33;19.20;;;;;;;24.23;54.39;101672.69;4949696;28;124823;-79
2023/07/09 04:23:23;;;;;;;25.63;18.85;;;;;;;24.25;54.43;101673.41;4951925;28;123808;-79
2023/07/09 04:25:50;;;;;;;26.90;18.63;;;;;;;24.26;54.41;101661.59;4969646;28;114387;-80
2023/07/09 04:28:18;;;;;;;30.30;19.42;;;;;;;24.28;54.34;101675.84;4950568;28;113995;-80
2023/07/09 04:30:50;;;;;;;23.67;19.75;;;;;;;24.28;54.72;101665.03;4950886;28;124798;-79
2023/07/09 04:33:19;;;;;;;28.42;20.50;;;;;;;24.28;54.65;101678.56;4951028;28;124676;-80
2023/07/09 04:35:48;;;;;;;36.85;20.25;;;;;;;24.31;54.65;101668.44;4927640;28;115623;-79
2023/07/09 04:38:15;;;;;;;26.00;19.92;;;;;;;24.32;54.76;101670.13;4945587;28;112972;-79
2023/07/09 04:40:43;;;;;;;29.38;19.70;;;;;;;24.38;54.71;101669.59;4968577;28;123843;-80
2023/07/09 04:43:11;;;;;;;26.83;19.50;;;;;;;24.42;54.55;101676.44;4949827;28;125528;-80
2023/07/09 04:45:38;;;;;;;27.48;18.65;;;;;;;24.45;54.76;101676.19;4959552;28;113234;-80
2023/07/09 04:48:06;;;;;;;27.92;20.60;;;;;;;24.48;54.62;101675.88;4959474;28;114428;-80
2023/07/09 04:50:34;;;;;;;25.73;19.98;;;;;;;24.53;54.93;101673.66;4950947;28;125905;-80
2023/07/09 04:53:02;;;;;;;29.00;20.67;;;;;;;24.57;54.85;101675.06;4933591;28;124833;-80
2023/07/09 04:55:29;;;;;;;28.58;20.80;;;;;;;24.60;55.08;101674.81;4952083;28;114965;-79
2023/07/09 04:57:56;;;;;;;28.75;20.60;;;;;;;24.65;55.18;101686.06;4951345;28;115813;-79
2023/07/09 05:00:23;;;;;;;28.88;21.70;;;;;;;24.71;55.08;101686.50;4950556;28;125981;-80
2023/07/09 05:02:50;;;;;;;29.45;22.77;;;;;;;24.78;55.19;101676.81;4935179;28;125229;-79
2023/07/09 05:05:18;;;;;;;27.95;22.38;;;;;;;24.83;55.04;101669.97;4951022;28;114339;-79
2023/07/09 05:07:45;;;;;;;28.77;21.67;;;;;;;24.90;55.09;101686.50;4934732;28;115779;-80
2023/07/09 05:10:12;;;;;;;30.80;23.63;;;;;;;24.96;54.86;101680.53;4934976;28;123640;-79
2023/07/09 05:12:54;;;;;;;30.77;24.88;;;;;;;25.02;54.70;101688.09;4950168;28;125411;-79
2023/07/09 05:15:22;;;;;;;34.08;26.33;;;;;;;25.04;55.06;101691.50;4943220;28;114118;-80
2023/07/09 05:17:51;;;;;;;32.47;26.25;;;;;;;25.04;55.32;101683.38;4945407;28;114891;-79
2023/07/09 05:20:18;;;;;;;32.97;26.48;;;;;;;25.06;55.04;101681.38;4931907;28;123016;-79
2023/07/09 05:22:46;;;;;;;34.13;27.45;;;;;;;25.10;55.45;101686.50;4946207;28;122879;-80
2023/07/09 05:25:13;;;;;;;35.63;28.60;;;;;;;25.13;55.24;101686.22;4965931;28;113484;-80
2023/07/09 05:27:44;;;;;;;39.03;30.23;;;;;;;25.18;55.34;101679.34;4958928;28;113704;-80
2023/07/09 05:30:18;;;;;;;44.58;33.42;;;;;;;25.24;55.54;101683.38;4948156;28;123062;-79
2023/07/09 05:32:46;;;;;;;39.40;33.70;;;;;;;25.32;55.58;101669.97;4944702;28;125956;-79
2023/07/09 05:35:14;;;;;;;33.35;29.13;;;;;;;25.39;55.13;101675.66;4950619;28;114984;-80
2023/07/09 05:37:41;;;;;;;31.00;26.05;;;;;;;25.48;55.19;101668.50;4938000;28;114281;-79
2023/07/09 05:40:08;;;;;;;31.75;25.55;;;;;;;25.58;55.21;101674.75;4961544;28;124130;-79
2023/07/09 05:42:36;;;;;;;31.15;23.60;;;;;;;25.66;54.96;101666.75;4967821;28;123916;-80
2023/07/09 05:45:03;;;;;;;30.83;22.33;;;;;;;25.77;54.84;101668.44;4955530;28;114851;-79
2023/07/09 05:47:30;;;;;;;32.78;24.08;;;;;;;25.88;55.00;101676.38;4961098;28;113484;-79
2023/07/09 05:49:57;;;;;;;36.22;24.83;;;;;;;26.00;54.83;101674.34;4940948;28;125196;-79
2023/07/09 05:52:25;;;;;;;31.45;25.52;;;;;;;26.09;54.46;101673.47;4952188;28;126063;-80
2023/07/09 05:54:53;;;;;;;35.13;24.75;;;;;;;26.18;54.27;101672.56;4951312;28;115991;-80
2023/07/09 05:57:20;;;;;;;32.20;24.67;;;;;;;26.27;54.30;101669.91;4968622;28;114755;-80
2023/07/09 05:59:48;;;;;;;32.75;25.98;;;;;;;26.34;54.06;101677.31;4941057;28;124682;-79
2023/07/09 06:02:18;;;;;;;29.40;25.35;;;;;;;26.42;53.95;101668.41;4937388;28;124891;-80
2023/07/09 06:04:45;;;;;;;31.67;25.65;;;;;;;26.53;53.94;101672.75;4954872;28;114490;-80
2023/07/09 06:07:13;;;;;;;32.10;24.80;;;;;;;26.66;53.75;101680.56;4970272;28;112721;-80
2023/07/09 06:09:41;;;;;;;31.85;26.35;;;;;;;26.75;53.57;101666.91;4956988;28;121982;-80
2023/07/09 06:12:09;;;;;;;32.67;26.50;;;;;;;26.87;53.50;101678.38;4941645;28;125454;-79
2023/07/09 06:14:36;;;;;;;31.55;24.85;;;;;;;27.00;53.14;101670.69;4972929;28;114325;-79
2023/07/09 06:17:04;;;;;;;30.35;23.67;;;;;;;27.13;53.18;101683.88;4985426;28;115003;-80
2023/07/09 06:19:31;;;;;;;31.15;24.30;;;;;;;27.27;52.79;101685.22;4959199;28;124803;-79
2023/07/09 06:21:58;;;;;;;25.95;21.35;;;;;;;27.41;53.06;101681.09;4974605;28;124039;-79
2023/07/09 06:24:26;;;;;;;26.70;22.17;;;;;;;27.55;52.97;101687.78;4944914;28;114370;-79
2023/07/09 06:26:53;;;;;;;28.70;23.40;;;;;;;27.69;52.83;101695.38;4955979;28;114346;-80
2023/07/09 06:29:20;;;;;;;32.30;24.48;;;;;;;27.81;52.41;101681.50;4931253;28;122753;-79
2023/07/09 06:31:47;;;;;;;31.75;22.90;;;;;;;27.93;52.56;101685.66;4974792;28;123171;-80
2023/07/09 06:34:14;;;;;;;26.85;23.58;;;;;;;28.06;52.42;101680.59;4940263;28;114959;-80
2023/07/09 06:36:42;;;;;;;32.00;24.10;;;;;;;28.21;52.20;101688.16;4937277;28;115589;-79
2023/07/09 06:39:11;;;;;;;27.27;23.75;;;;;;;28.34;51.98;101694.00;4935494;28;124499;-79
2023/07/09 06:41:41;;;;;;;31.13;23.63;;;;;;;28.48;52.51;101693.38;4956236;28;125039;-80
2023/07/09 06:44:26;;;;;;;34.55;23.65;;;;;;;28.63;51.78;101692.75;4959762;28;116648;-80
2023/07/09 06:46:53;;;;;;;26.98;20.85;;;;;;;28.77;51.81;101700.28;4979476;28;115061;-80
2023/07/09 06:49:21;;;;;;;25.08;18.17;;;;;;;28.93;51.52;101697.56;4962818;28;124407;-80
2023/07/09 06:51:48;;;;;;;22.67;16.83;;;;;;;29.08;51.04;101685.97;4959984;28;124389;-80
2023/07/09 06:54:15;;;;;;;30.60;17.80;;;;;;;29.24;50.69;101686.00;4961735;28;116777;-80
2023/07/09 06:56:42;;;;;;;24.70;17.80;;;;;;;29.38;50.35;101692.63;4960957;28;112671;-79
2023/07/09 06:59:10;;;;;;;23.95;19.23;;;;;;;29.54;50.14;101691.75;4950158;28;124835;-79
2023/07/09 07:01:37;;;;;;;24.80;17.40;;;;;;;29.69;50.34;101695.47;4963930;28;123647;-80
2023/07/09 07:04:04;;;;;;;25.63;18.55;;;;;;;29.86;49.79;101698.22;4947859;28;112316;-80
2023/07/09 07:06:31;;;;;;;23.50;17.85;;;;;;;30.01;49.42;101698.31;4945501;28;115879;-80
2023/07/09 07:08:58;;;;;;;24.83;17.92;;;;;;;30.16;49.41;101690.22;4964049;28;124158;-80
2023/07/09 07:11:29;;;;;;;25.60;19.10;;;;;;;30.29;49.15;101687.78;4945339;28;123501;-80
2023/07/09 07:13:57;;;;;;;25.23;19.63;;;;;;;30.41;48.75;101694.56;4937964;28;113532;-80
2023/07/09 07:16:24;;;;;;;26.35;20.10;;;;;;;30.49;48.58;101679.16;4937790;28;113810;-80
2023/07/09 07:18:52;;;;;;;23.00;18.98;;;;;;;30.56;48.05;101685.59;4928063;28;122242;-79
2023/07/09 07:21:19;;;;;;;23.73;18.88;;;;;;;30.66;48.21;101680.75;4949112;28;124217;-80
2023/07/09 07:23:46;;;;;;;25.38;18.85;;;;;;;30.79;48.22;101680.16;4948886;28;113950;-80
2023/07/09 07:26:14;;;;;;;23.05;14.93;;;;;;;30.93;47.68;101676.66;4969119;28;112807;-80
2023/07/09 07:28:41;;;;;;;20.52;15.32;;;;;;;31.09;47.52;101675.66;4935273;28;124462;-79
2023/07/09 07:31:08;;;;;;;22.40;17.02;;;;;;;31.26;47.30;101675.50;4947846;28;123224;-79
2023/07/09 07:33:37;;;;;;;22.45;16.38;;;;;;;31.40;46.89;101671.94;4965550;28;115490;-80
2023/07/09 07:36:05;;;;;;;20.65;15.45;;;;;;;31.54;46.51;101673.88;4953523;28;115548;-80
2023/07/09 07:38:52;;;;;;;19.70;13.80;;;;;;;31.68;46.44;101668.59;4946629;28;124540;-79
2023/07/09 07:41:20;;;;;;;22.90;14.05;;;;;;;31.79;46.44;101677.19;4946116;28;124103;-79
2023/07/09 07:43:47;;;;;;;19.33;12.20;;;;;;;31.92;46.23;101671.03;4969848;28;114869;-80
2023/07/09 07:46:14;;;;;;;20.73;11.88;;;;;;;32.08;46.34;101674.63;4951901;28;114691;-80
2023/07/09 07:48:42;;;;;;;18.75;11.98;;;;;;;32.24;45.89;101674.44;4917000;28;123657;-79
2023/07/09 07:51:09;;;;;;;16.73;10.75;;;;;;;32.40;45.63;101674.22;4933344;28;123208;-80
2023/07/09 07:53:36;;;;;;;14.27;10.55;;;;;;;32.57;44.84;101665.78;4932662;28;113326;-80
2023/07/09 07:56:04;;;;;;;15.05;10.32;;;;;;;32.65;43.99;101665.63;4935238;28;114163;-80
2023/07/09 07:58:32;;;;;;;13.65;9.93;;;;;;;32.73;43.44;101662.75;4943219;28;125295;-80
2023/07/09 08:00:59;;;;;;;13.25;9.30;;;;;;;32.87;43.86;101668.38;4933632;28;122184;-80
2023/07/09 08:03:27;;;;;;;12.85;9.50;;;;;;;32.99;43.22;101666.81;4945325;28;113386;-80
2023/07/09 08:05:55;;;;;;;16.05;9.63;;;;;;;33.11;42.98;101670.72;4953255;28;113907;-80
2023/07/09 08:08:22;;;;;;;20.60;9.30;;;;;;;33.24;43.02;101674.63;4952909;28;124050;-80
2023/07/09 08:10:50;;;;;;;14.70;9.00;;;;;;;33.35;42.21;101671.34;4945521;28;123313;-80
2023/07/09 08:13:18;;;;;;;11.52;8.52;;;;;;;33.46;42.56;101676.28;4969876;28;114333;-80
2023/07/09 08:15:46;;;;;;;14.73;8.40;;;;;;;33.58;41.66;101670.22;4961381;28;112771;-80
2023/07/09 08:18:14;;;;;;;13.10;8.63;;;;;;;33.69;41.61;101672.44;4960536;28;122246;-80
2023/07/09 08:20:44;;;;;;;13.68;8.68;;;;;;;33.79;40.99;101667.41;4961109;28;122019;-81
2023/07/09 08:23:12;;;;;;;13.63;8.70;;;;;;;33.86;41.13;101671.03;4945261;28;114222;-80
2023/07/09 08:25:39;;;;;;;12.15;8.00;;;;;;;33.93;41.01;101666.44;4951799;28;113440;-80
2023/07/09 08:28:06;;;;;;;12.77;7.35;;;;;;;34.03;40.78;101662.47;4949276;28;123762;-80
2023/07/09 08:30:34;;;;;;;14.32;7.30;;;;;;;34.12;40.44;101663.97;4965151;28;123806;-80
2023/07/09 08:33:01;;;;;;;11.88;7.38;;;;;;;34.19;40.43;101662.16;4953103;28;112686;-80
2023/07/09 08:35:28;;;;;;;13.63;7.25;;;;;;;34.29;40.71;101662.59;4946898;28;114431;-80
2023/07/09 08:38:03;;;;;;;;;;;;;;;34.41;41.45;101654.56;4935125;28;125013;-80
2023/07/09 08:40:30;;;;;;;10.75;6.55;;;;;;;34.59;40.67;101655.91;4959812;28;124193;-80
2023/07/09 08:43:07;;;;;;;11.10;6.38;;;;;;;34.74;40.10;101653.00;4970018;28;113841;-79
2023/07/09 08:45:48;;;;;;;9.77;6.65;;;;;;;34.84;38.91;101653.41;4950665;28;112646;-80
2023/07/09 08:48:19;;;;;;;9.40;6.63;;;;;;;34.92;38.89;101653.19;4945136;28;123677;-80
2023/07/09 08:50:54;;;;;;;9.88;6.55;;;;;;;35.02;38.83;101650.03;4924352;28;123858;-80
2023/07/09 08:53:41;;;;;;;;;;;;;;;35.10;39.81;101658.91;4955337;28;114683;-80
2023/07/09 08:56:14;;;;;;;12.38;6.55;;;;;;;35.24;38.31;101653.44;4951011;28;113696;-80
2023/07/09 08:58:43;;;;;;;9.63;6.67;;;;;;;35.34;38.40;101648.34;4941183;28;124202;-80
2023/07/09 09:01:24;;;;;;;8.75;5.68;;;;;;;35.42;38.43;101650.03;4960835;28;124144;-80
2023/07/09 09:03:58;;;;;;;8.82;5.70;;;;;;;35.51;37.35;101647.88;4935584;28;112613;-81
2023/07/09 09:06:30;;;;;;;8.50;5.88;;;;;;;35.59;37.55;101644.91;4934370;28;113814;-80
2023/07/09 09:09:28;;;;;;;8.02;5.97;;;;;;;35.69;37.72;101645.31;4952799;28;123236;-80
2023/07/09 09:12:03;;;;;;;8.15;5.35;;;;;;;35.75;36.41;101649.94;4938692;28;122866;-80
2023/07/09 09:14:37;;;;;;;8.45;5.30;;;;;;;35.81;37.25;101640.81;4933715;28;115105;-79
2023/07/09 09:17:11;;;;;;;;;;;;;;;35.86;37.90;101641.00;4920594;28;116206;-80
2023/07/09 09:19:46;;;;;;;8.18;5.40;;;;;;;35.93;36.63;101640.97;4936495;28;124229;-80
2023/07/09 09:22:18;;;;;;;10.50;5.22;;;;;;;35.99;36.06;101628.22;4951809;28;123667;-80
2023/07/09 09:25:03;;;;;;;7.57;5.40;;;;;;;36.07;36.35;101633.47;4933517;28;114465;-80
2023/07/09 09:27:30;;;;;;;8.50;5.40;;;;;;;36.18;36.51;101643.84;4949360;28;115547;-80
2023/07/09 09:29:57;;;;;;;7.53;5.20;;;;;;;36.28;35.74;101637.88;4936846;28;124234;-80
2023/07/09 09:32:34;;;;;;;6.57;5.05;;;;;;;36.35;35.08;101637.81;4936693;28;124823;-80
2023/07/09 09:35:16;;;;;;;6.95;4.70;;;;;;;36.44;35.26;101636.50;4947279;28;115480;-80
2023/07/09 09:37:55;;;;;;;9.82;5.38;;;;;;;36.50;34.59;101641.13;4934765;28;113852;-80
2023/07/09 09:40:25;;;;;;;8.23;4.90;;;;;;;36.58;35.05;101643.63;4947921;28;125121;-80
2023/07/09 09:42:55;;;;;;;7.40;4.93;;;;;;;36.68;34.35;101650.59;4966470;28;123433;-80
2023/07/09 09:45:35;;;;;;;9.23;4.25;;;;;;;36.73;34.54;101650.75;4952718;28;114320;-80
2023/07/09 09:48:18;;;;;;;8.15;4.60;;;;;;;36.77;34.00;101646.47;4946607;28;114221;-80
2023/07/09 09:50:47;;;;;;;6.07;5.20;;;;;;;36.82;33.85;101649.41;4935424;28;125313;-80
2023/07/09 09:53:20;;;;;;;7.72;5.15;;;;;;;36.88;34.10;101642.97;4935202;28;124618;-80
2023/07/09 09:55:49;;;;;;;8.40;4.65;;;;;;;36.93;34.48;101651.44;4947853;28;115271;-80
2023/07/09 09:58:17;;;;;;;7.78;4.70;;;;;;;36.98;34.19;101648.88;4949447;28;113891;-80
2023/07/09 10:00:55;;;;;;;8.43;5.90;;;;;;;37.06;34.16;101633.09;4971635;28;123153;-80
2023/07/09 10:03:33;;;;;;;7.13;4.95;;;;;;;37.13;32.91;101628.31;4968307;28;123782;-80
2023/07/09 10:06:08;;;;;;;7.57;5.40;;;;;;;37.15;32.25;101620.72;4968892;28;115182;-80
2023/07/09 10:08:48;;;;;;;9.43;4.82;;;;;;;37.19;32.54;101610.88;4959657;28;114938;-80
2023/07/09 10:11:26;;;;;;;8.95;5.20;;;;;;;37.24;32.75;101602.72;4960978;28;124031;-81
2023/07/09 10:13:57;;;;;;;6.95;5.20;;;;;;;37.30;32.45;101604.59;4955859;28;123111;-80
2023/07/09 10:16:35;;;;;;;7.82;5.00;;;;;;;37.36;32.20;101606.44;4972065;28;114394;-79
2023/07/09 10:19:29;;;;;;;6.93;5.03;;;;;;;37.41;33.05;101608.50;4951251;28;115209;-80
2023/07/09 10:22:05;;;;;;;7.95;5.03;;;;;;;37.49;32.74;101610.97;4941081;28;123072;-79
2023/07/09 10:24:50;;;;;;;7.40;5.00;;;;;;;37.61;32.48;101608.31;4943571;28;123838;-80
2023/07/09 10:27:46;;;;;;;8.02;5.38;;;;;;;37.66;32.65;101616.75;4949001;28;113899;-80
2023/07/09 10:30:37;;;;;;;7.28;4.85;;;;;;;37.70;32.41;101604.16;4930311;28;112855;-80
2023/07/09 10:33:08;;;;;;;7.50;4.95;;;;;;;37.77;31.99;101607.69;4934425;28;124111;-79
2023/07/09 10:36:01;;;;;;;7.68;4.70;;;;;;;37.82;31.63;101598.69;4935558;28;124617;-79
2023/07/09 10:38:47;;;;;;;8.17;4.80;;;;;;;37.84;30.75;101595.69;4937392;28;115247;-80
2023/07/09 10:41:17;;;;;;;6.85;4.63;;;;;;;37.84;30.80;101607.59;4934242;28;114255;-80
2023/07/09 10:44:11;;;;;;;9.20;4.28;;;;;;;37.86;30.78;101594.38;4953349;28;124375;-80
2023/07/09 10:46:42;;;;;;;5.35;4.00;;;;;;;37.91;30.19;101601.97;4947444;28;122945;-80
2023/07/09 10:49:14;;;;;;;6.40;4.45;;;;;;;37.92;29.73;101614.72;4980824;28;113452;-79
2023/07/09 10:51:50;;;;;;;6.90;4.32;;;;;;;37.94;29.63;101609.81;4960320;28;114938;-79
2023/07/09 10:54:33;;;;;;;7.68;4.13;;;;;;;37.95;30.03;101608.72;4943766;28;124062;-80
2023/07/09 10:57:12;;;;;;;7.95;4.03;;;;;;;37.98;29.46;101608.28;4932226;28;124046;-80
2023/07/09 10:59:41;;;;;;;8.23;4.65;;;;;;;38.01;29.65;101613.31;4947566;28;115430;-80
2023/07/09 11:02:29;;;;;;;10.57;4.35;;;;;;;38.08;29.83;101610.50;4946476;28;115688;-80
2023/07/09 11:05:00;;;;;;;5.93;4.32;;;;;;;38.16;29.68;101604.63;4939205;28;124005;-81
2023/07/09 11:07:35;;;;;;;9.63;3.97;;;;;;;38.23;29.84;101593.47;4948362;28;123423;-80
2023/07/09 11:10:17;;;;;;;6.35;4.25;;;;;;;38.31;29.46;101595.91;4952287;28;114640;-80
2023/07/09 11:12:50;;;;;;;6.22;4.47;;;;;;;38.39;30.45;101592.81;4941292;28;115406;-80
2023/07/09 11:15:31;;;;;;;7.47;4.47;;;;;;;38.47;29.83;101580.56;4942652;28;124086;-81
2023/07/09 11:17:59;;;;;;;5.90;4.40;;;;;;;38.51;29.40;101579.00;4962690;28;123998;-81
2023/07/09 11:20:35;;;;;;;5.78;4.10;;;;;;;38.54;29.92;101576.63;4920585;28;115872;-81
2023/07/09 11:23:06;;;;;;;6.15;4.82;;;;;;;38.61;29.19;101572.88;4936709;28;114001;-81